Pagrindinis puslapis
METAR-TAF:

METAR-TAF

Oro uostai :

Mangalore, Indija

platuma: 12-55N, ilguma: 074-53E, Aukštis: 102 m

Dabartinis oras

Ataskaita buvo paskelbta 26 minutes, ne 21:00 UTC
Vėjas 4 kt iš Pietryčių
Temperatūra 24°C
Drėgmė 94%
Slėgis 1007 hPa
Matomumas: 3000 m
Mažai debesys ne aukštis 600 ft
Išsisklaidę debesys ne aukštis 1200 ft
Su prošvaistėmis ne aukštis 8000 ft
rūkana

METAR: VOML 222100Z 14004KT 3000 BR FEW006 SCT012 BKN080 24/23 Q1007 NOSIG

Laikas: 02:56 (21:26 UTC)

Prognozė

Ataskaita buvo paskelbta 1 valandą ir 26 minutes, ne 20:00 UTC
Prognozė galioja nuo 22 metu 21 UTC su 23 metu 06 UTC
Vėjas 5 kt iš Rytų/Pietryčių
Matomumas: 6000 m
Mažai debesys ne aukštis 700 ft
Išsisklaidę debesys ne aukštis 1200 ft
Su prošvaistėmis ne aukštis 8000 ft
Laikinai
nuo 22 metu 21 UTC su 23 metu 03 UTC
Matomumas: 3000 m
Išsisklaidę debesys ne aukštis 400 ft
Išsisklaidę debesys ne aukštis 1200 ft
Su prošvaistėmis ne aukštis 8000 ft
lietus, rūkana

TAF: VOML 222000Z 2221/2306 11005KT 6000 FEW007 SCT012 BKN080 TEMPO 2221/2303 3000 RA BR SCT004 SCT012 BKN080

Orai ataskaitas ir orų prognozės (METAR, TAF).

turimą stotys yra geltonos ir raudonos taškus žemėlapyje.

Perkelti pele per norėdami pamatyti stoties vardą.

Tada spustelėkite, norėdami matyti oro stebėjimo ir prognozės.

Norėdami pakeisti žemėlapį: spustelėkite ant žalios mygtukų su juodo kryžiaus žemyn,; žalią mygtuką su brūkšneliu, jei norite nutolinti; arba žalių rodyklių gretimoms žemėlapius.


METAR-TAF: